sensor_id;sensor_type;location;lat;lon;timestamp;pressure;altitude;pressure_sealevel;temperature;humidity
23361;BME280;11852;50.082;18.554;2023-04-01T00:00:28;96886.5;;;8.95;84.04
23361;BME280;11852;50.082;18.554;2023-04-01T00:01:35;96886.5;;;8.82;84.35
23361;BME280;11852;50.082;18.554;2023-04-01T00:02:42;96884.0;;;8.76;84.72
23361;BME280;11852;50.082;18.554;2023-04-01T00:03:49;96879.51;;;8.65;85.12
23361;BME280;11852;50.082;18.554;2023-04-01T00:04:56;96879.5;;;8.72;84.65
23361;BME280;11852;50.082;18.554;2023-04-01T00:06:03;96879.51;;;8.58;85.22
23361;BME280;11852;50.082;18.554;2023-04-01T00:07:09;96879.51;;;8.56;85.29
23361;BME280;11852;50.082;18.554;2023-04-01T00:08:16;96876.0;;;8.63;85.03
23361;BME280;11852;50.082;18.554;2023-04-01T00:09:23;96878.0;;;8.76;84.55
23361;BME280;11852;50.082;18.554;2023-04-01T00:10:30;96876.0;;;8.78;84.45
23361;BME280;11852;50.082;18.554;2023-04-01T00:11:37;96879.51;;;8.7;84.64
23361;BME280;11852;50.082;18.554;2023-04-01T00:12:43;96877.0;;;8.61;85.05
23361;BME280;11852;50.082;18.554;2023-04-01T00:13:50;96872.0;;;8.58;85.05
23361;BME280;11852;50.082;18.554;2023-04-01T00:14:57;96871.0;;;8.56;85.04
23361;BME280;11852;50.082;18.554;2023-04-01T00:16:04;96868.99;;;8.53;85.07
23361;BME280;11852;50.082;18.554;2023-04-01T00:17:11;96872.0;;;8.59;84.79
23361;BME280;11852;50.082;18.554;2023-04-01T00:18:18;96868.5;;;8.6;84.78
23361;BME280;11852;50.082;18.554;2023-04-01T00:19:25;96865.0;;;8.57;84.88
23361;BME280;11852;50.082;18.554;2023-04-01T00:20:32;96864.5;;;8.69;84.38
23361;BME280;11852;50.082;18.554;2023-04-01T00:21:38;96867.0;;;8.59;84.74
23361;BME280;11852;50.082;18.554;2023-04-01T00:22:45;96866.5;;;8.68;84.38
23361;BME280;11852;50.082;18.554;2023-04-01T00:23:52;96864.5;;;8.7;84.26
23361;BME280;11852;50.082;18.554;2023-04-01T00:24:59;96866.0;;;8.74;84.15
23361;BME280;11852;50.082;18.554;2023-04-01T00:26:06;96866.0;;;8.8;83.9
23361;BME280;11852;50.082;18.554;2023-04-01T00:27:13;96866.5;;;8.68;84.33
23361;BME280;11852;50.082;18.554;2023-04-01T00:28:20;96868.5;;;8.73;84.08
23361;BME280;11852;50.082;18.554;2023-04-01T00:29:26;96867.5;;;8.57;84.6
23361;BME280;11852;50.082;18.554;2023-04-01T00:30:33;96871.5;;;8.59;84.43
23361;BME280;11852;50.082;18.554;2023-04-01T00:31:40;96872.0;;;8.6;84.33
23361;BME280;11852;50.082;18.554;2023-04-01T00:32:47;96872.0;;;8.59;84.37
23361;BME280;11852;50.082;18.554;2023-04-01T00:33:53;96871.5;;;8.61;84.26
23361;BME280;11852;50.082;18.554;2023-04-01T00:35:00;96873.5;;;8.43;84.9
23361;BME280;11852;50.082;18.554;2023-04-01T00:36:14;96872.5;;;8.41;84.88
23361;BME280;11852;50.082;18.554;2023-04-01T00:37:20;96877.5;;;8.31;85.24
23361;BME280;11852;50.082;18.554;2023-04-01T00:38:26;96877.5;;;8.38;85.01
23361;BME280;11852;50.082;18.554;2023-04-01T00:39:34;96879.51;;;8.43;84.79
23361;BME280;11852;50.082;18.554;2023-04-01T00:40:45;96879.51;;;8.4;85.0
23361;BME280;11852;50.082;18.554;2023-04-01T00:41:47;96879.0;;;8.47;84.6
23361;BME280;11852;50.082;18.554;2023-04-01T00:42:54;96880.01;;;8.47;84.57
23361;BME280;11852;50.082;18.554;2023-04-01T00:45:25;96878.0;;;8.51;84.55
23361;BME280;11852;50.082;18.554;2023-04-01T00:46:30;96878.0;;;8.52;84.57
23361;BME280;11852;50.082;18.554;2023-04-01T00:47:36;96878.5;;;8.43;84.96
23361;BME280;11852;50.082;18.554;2023-04-01T00:48:49;96880.01;;;8.4;85.06
23361;BME280;11852;50.082;18.554;2023-04-01T00:49:55;96879.0;;;8.45;84.88
23361;BME280;11852;50.082;18.554;2023-04-01T00:52:12;96881.5;;;8.49;84.69
23361;BME280;11852;50.082;18.554;2023-04-01T00:53:18;96881.0;;;8.41;84.96
23361;BME280;11852;50.082;18.554;2023-04-01T00:54:25;96881.99;;;8.4;85.06
23361;BME280;11852;50.082;18.554;2023-04-01T00:55:33;96881.99;;;8.5;84.66
23361;BME280;11852;50.082;18.554;2023-04-01T00:56:40;96881.0;;;8.52;84.62
23361;BME280;11852;50.082;18.554;2023-04-01T00:57:46;96881.99;;;8.41;85.08
23361;BME280;11852;50.082;18.554;2023-04-01T00:59:00;96877.0;;;8.37;85.21
23361;BME280;11852;50.082;18.554;2023-04-01T01:00:04;96878.0;;;8.38;85.22
23361;BME280;11852;50.082;18.554;2023-04-01T01:01:09;96877.5;;;8.41;85.07
23361;BME280;11852;50.082;18.554;2023-04-01T01:02:16;96875.5;;;8.5;84.76
23361;BME280;11852;50.082;18.554;2023-04-01T01:03:23;96874.0;;;8.61;84.44
23361;BME280;11852;50.082;18.554;2023-04-01T01:04:31;96873.0;;;8.73;84.11
23361;BME280;11852;50.082;18.554;2023-04-01T01:06:31;96871.5;;;8.68;84.26
23361;BME280;11852;50.082;18.554;2023-04-01T01:08:07;96868.0;;;8.43;85.06
23361;BME280;11852;50.082;18.554;2023-04-01T01:10:30;96868.5;;;8.41;85.04
23361;BME280;11852;50.082;18.554;2023-04-01T01:11:42;96867.51;;;8.42;85.03
23361;BME280;11852;50.082;18.554;2023-04-01T01:15:23;96861.5;;;8.59;84.45
23361;BME280;11852;50.082;18.554;2023-04-01T01:16:22;96863.5;;;8.5;84.68
23361;BME280;11852;50.082;18.554;2023-04-01T01:27:19;96857.99;;;8.35;84.95
23361;BME280;11852;50.082;18.554;2023-04-01T01:29:54;96859.0;;;8.34;85.02
23361;BME280;11852;50.082;18.554;2023-04-01T01:33:30;96857.49;;;8.43;84.53
23361;BME280;11852;50.082;18.554;2023-04-01T01:35:50;96857.5;;;8.34;84.79
23361;BME280;11852;50.082;18.554;2023-04-01T01:36:57;96855.5;;;8.39;84.57
23361;BME280;11852;50.082;18.554;2023-04-01T01:38:04;96854.0;;;8.31;84.94
23361;BME280;11852;50.082;18.554;2023-04-01T01:39:10;96855.5;;;8.27;85.01
23361;BME280;11852;50.082;18.554;2023-04-01T01:40:16;96853.5;;;8.35;84.63
23361;BME280;11852;50.082;18.554;2023-04-01T01:41:24;96853.5;;;8.2;85.11
23361;BME280;11852;50.082;18.554;2023-04-01T01:42:31;96851.0;;;8.15;85.28
23361;BME280;11852;50.082;18.554;2023-04-01T01:43:39;96857.0;;;8.23;84.98
23361;BME280;11852;50.082;18.554;2023-04-01T01:44:44;96857.5;;;8.18;85.09
23361;BME280;11852;50.082;18.554;2023-04-01T01:45:52;96855.5;;;8.07;85.51
23361;BME280;11852;50.082;18.554;2023-04-01T01:46:58;96855.5;;;8.21;85.04
23361;BME280;11852;50.082;18.554;2023-04-01T01:48:04;96854.0;;;8.2;84.99
23361;BME280;11852;50.082;18.554;2023-04-01T01:49:11;96851.0;;;8.22;84.92
23361;BME280;11852;50.082;18.554;2023-04-01T01:50:18;96851.5;;;8.19;85.03
23361;BME280;11852;50.082;18.554;2023-04-01T01:51:25;96853.0;;;8.19;84.93
23361;BME280;11852;50.082;18.554;2023-04-01T01:52:32;96852.0;;;8.13;85.16
23361;BME280;11852;50.082;18.554;2023-04-01T01:53:38;96855.0;;;7.96;85.77
23361;BME280;11852;50.082;18.554;2023-04-01T01:54:51;96855.51;;;8.01;85.63
23361;BME280;11852;50.082;18.554;2023-04-01T01:55:57;96857.49;;;8.08;85.4
23361;BME280;11852;50.082;18.554;2023-04-01T01:57:07;96855.5;;;8.14;85.25
23361;BME280;11852;50.082;18.554;2023-04-01T01:59:23;96858.5;;;8.1;85.4
23361;BME280;11852;50.082;18.554;2023-04-01T02:00:30;96861.5;;;8.1;85.43
23361;BME280;11852;50.082;18.554;2023-04-01T02:01:39;96862.0;;;8.17;85.2
23361;BME280;11852;50.082;18.554;2023-04-01T02:02:44;96865.0;;;8.24;85.02
23361;BME280;11852;50.082;18.554;2023-04-01T02:03:51;96865.5;;;8.19;85.19
23361;BME280;11852;50.082;18.554;2023-04-01T02:04:57;96870.0;;;8.18;85.26
23361;BME280;11852;50.082;18.554;2023-04-01T02:06:05;96867.01;;;8.27;84.91
23361;BME280;11852;50.082;18.554;2023-04-01T02:07:16;96871.5;;;8.11;85.56
23361;BME280;11852;50.082;18.554;2023-04-01T02:08:22;96871.5;;;8.04;85.78
23361;BME280;11852;50.082;18.554;2023-04-01T02:09:27;96868.5;;;8.08;85.68
23361;BME280;11852;50.082;18.554;2023-04-01T02:10:35;96865.5;;;7.97;85.99
23361;BME280;11852;50.082;18.554;2023-04-01T02:12:53;96867.0;;;8.07;85.65
23361;BME280;11852;50.082;18.554;2023-04-01T02:14:04;96865.0;;;8.1;85.52
23361;BME280;11852;50.082;18.554;2023-04-01T02:15:10;96866.5;;;8.1;85.6
23361;BME280;11852;50.082;18.554;2023-04-01T02:17:08;96867.01;;;8.13;85.49
23361;BME280;11852;50.082;18.554;2023-04-01T02:17:29;96868.5;;;8.07;85.58
23361;BME280;11852;50.082;18.554;2023-04-01T02:18:35;96865.5;;;8.01;85.86
23361;BME280;11852;50.082;18.554;2023-04-01T02:19:51;96868.5;;;8.02;85.89
23361;BME280;11852;50.082;18.554;2023-04-01T02:20:54;96867.0;;;8.05;85.81
23361;BME280;11852;50.082;18.554;2023-04-01T02:22:01;96866.5;;;8.06;85.78
23361;BME280;11852;50.082;18.554;2023-04-01T02:23:07;96869.5;;;8.06;85.74
23361;BME280;11852;50.082;18.554;2023-04-01T02:24:14;96866.0;;;8.15;85.6
23361;BME280;11852;50.082;18.554;2023-04-01T02:25:28;96865.5;;;8.07;85.9
23361;BME280;11852;50.082;18.554;2023-04-01T02:26:34;96868.5;;;8.1;85.93
23361;BME280;11852;50.082;18.554;2023-04-01T02:27:41;96862.0;;;8.13;85.74
23361;BME280;11852;50.082;18.554;2023-04-01T02:28:47;96863.0;;;8.11;85.79
23361;BME280;11852;50.082;18.554;2023-04-01T02:29:54;96862.0;;;8.23;85.58
23361;BME280;11852;50.082;18.554;2023-04-01T02:31:01;96858.5;;;8.19;85.71
23361;BME280;11852;50.082;18.554;2023-04-01T02:32:08;96861.5;;;8.12;85.94
23361;BME280;11852;50.082;18.554;2023-04-01T02:33:15;96863.0;;;8.14;85.94
23361;BME280;11852;50.082;18.554;2023-04-01T02:34:22;96862.5;;;8.16;85.96
23361;BME280;11852;50.082;18.554;2023-04-01T02:35:28;96864.5;;;8.15;86.03
23361;BME280;11852;50.082;18.554;2023-04-01T02:36:35;96864.0;;;8.17;85.97
23361;BME280;11852;50.082;18.554;2023-04-01T02:37:42;96867.0;;;8.18;86.01
23361;BME280;11852;50.082;18.554;2023-04-01T02:38:49;96865.0;;;8.19;86.01
23361;BME280;11852;50.082;18.554;2023-04-01T02:39:58;96860.5;;;8.21;86.0
23361;BME280;11852;50.082;18.554;2023-04-01T02:41:02;96862.0;;;8.28;85.83
23361;BME280;11852;50.082;18.554;2023-04-01T02:42:09;96862.5;;;8.32;85.81
23361;BME280;11852;50.082;18.554;2023-04-01T02:43:16;96868.0;;;8.24;86.06
23361;BME280;11852;50.082;18.554;2023-04-01T02:44:23;96869.99;;;8.24;86.13
23361;BME280;11852;50.082;18.554;2023-04-01T02:45:30;96871.0;;;8.28;86.01
23361;BME280;11852;50.082;18.554;2023-04-01T02:46:37;96874.5;;;8.36;85.71
23361;BME280;11852;50.082;18.554;2023-04-01T02:47:43;96870.0;;;8.27;86.05
23361;BME280;11852;50.082;18.554;2023-04-01T02:48:50;96875.5;;;8.23;86.21
23361;BME280;11852;50.082;18.554;2023-04-01T02:50:00;96875.5;;;8.24;86.17
23361;BME280;11852;50.082;18.554;2023-04-01T02:51:08;96877.0;;;8.26;86.03
23361;BME280;11852;50.082;18.554;2023-04-01T02:52:14;96874.5;;;8.38;85.65
23361;BME280;11852;50.082;18.554;2023-04-01T02:53:21;96872.5;;;8.31;85.96
23361;BME280;11852;50.082;18.554;2023-04-01T02:54:27;96875.0;;;8.32;85.94
23361;BME280;11852;50.082;18.554;2023-04-01T02:55:34;96873.0;;;8.25;86.21
23361;BME280;11852;50.082;18.554;2023-04-01T02:56:41;96873.0;;;8.27;86.1
23361;BME280;11852;50.082;18.554;2023-04-01T02:57:48;96874.0;;;8.38;85.76
23361;BME280;11852;50.082;18.554;2023-04-01T02:58:55;96875.5;;;8.35;85.85
23361;BME280;11852;50.082;18.554;2023-04-01T03:00:02;96875.5;;;8.28;86.17
23361;BME280;11852;50.082;18.554;2023-04-01T03:01:08;96877.0;;;8.36;85.92
23361;BME280;11852;50.082;18.554;2023-04-01T03:02:16;96877.5;;;8.4;85.8
23361;BME280;11852;50.082;18.554;2023-04-01T03:03:22;96876.0;;;8.42;85.77
23361;BME280;11852;50.082;18.554;2023-04-01T03:04:29;96875.5;;;8.34;86.09
23361;BME280;11852;50.082;18.554;2023-04-01T03:05:36;96878.5;;;8.35;86.08
23361;BME280;11852;50.082;18.554;2023-04-01T03:06:43;96877.5;;;8.32;86.13
23361;BME280;11852;50.082;18.554;2023-04-01T03:07:49;96878.5;;;8.36;85.96
23361;BME280;11852;50.082;18.554;2023-04-01T03:08:56;96877.0;;;8.38;85.92
23361;BME280;11852;50.082;18.554;2023-04-01T03:10:04;96876.5;;;8.39;85.88
23361;BME280;11852;50.082;18.554;2023-04-01T03:11:10;96874.0;;;8.47;85.6
23361;BME280;11852;50.082;18.554;2023-04-01T03:12:17;96877.0;;;8.48;85.54
23361;BME280;11852;50.082;18.554;2023-04-01T03:13:24;96876.5;;;8.43;85.74
23361;BME280;11852;50.082;18.554;2023-04-01T03:14:31;96879.51;;;8.43;85.74
23361;BME280;11852;50.082;18.554;2023-04-01T03:15:38;96879.51;;;8.35;86.07
23361;BME280;11852;50.082;18.554;2023-04-01T03:16:45;96878.5;;;8.47;85.65
23361;BME280;11852;50.082;18.554;2023-04-01T03:17:51;96881.0;;;8.56;85.3
23361;BME280;11852;50.082;18.554;2023-04-01T03:18:58;96879.0;;;8.49;85.57
23361;BME280;11852;50.082;18.554;2023-04-01T03:20:05;96879.0;;;8.51;85.57
23361;BME280;11852;50.082;18.554;2023-04-01T03:21:22;96874.5;;;8.46;85.72
23361;BME280;11852;50.082;18.554;2023-04-01T03:22:19;96876.0;;;8.42;85.79
23361;BME280;11852;50.082;18.554;2023-04-01T03:23:26;96877.5;;;8.43;85.71
23361;BME280;11852;50.082;18.554;2023-04-01T03:24:33;96878.5;;;8.47;85.57
23361;BME280;11852;50.082;18.554;2023-04-01T03:25:40;96880.01;;;8.46;85.62
23361;BME280;11852;50.082;18.554;2023-04-01T03:26:46;96880.0;;;8.52;85.46
23361;BME280;11852;50.082;18.554;2023-04-01T03:27:53;96878.0;;;8.46;85.66
23361;BME280;11852;50.082;18.554;2023-04-01T03:29:00;96882.5;;;8.49;85.6
23361;BME280;11852;50.082;18.554;2023-04-01T03:30:07;96884.5;;;8.37;86.05
23361;BME280;11852;50.082;18.554;2023-04-01T03:31:14;96886.5;;;8.38;85.85
23361;BME280;11852;50.082;18.554;2023-04-01T03:32:21;96887.5;;;8.45;85.68
23361;BME280;11852;50.082;18.554;2023-04-01T03:33:27;96887.0;;;8.49;85.6
23361;BME280;11852;50.082;18.554;2023-04-01T03:34:34;96887.0;;;8.4;85.99
23361;BME280;11852;50.082;18.554;2023-04-01T03:35:41;96890.5;;;8.47;85.78
23361;BME280;11852;50.082;18.554;2023-04-01T03:36:48;96888.0;;;8.47;85.79
23361;BME280;11852;50.082;18.554;2023-04-01T03:37:55;96887.5;;;8.53;85.65
23361;BME280;11852;50.082;18.554;2023-04-01T03:39:02;96886.5;;;8.52;85.65
23361;BME280;11852;50.082;18.554;2023-04-01T03:40:09;96883.5;;;8.53;85.62
23361;BME280;11852;50.082;18.554;2023-04-01T03:41:16;96884.0;;;8.64;85.15
23361;BME280;11852;50.082;18.554;2023-04-01T03:42:22;96880.5;;;8.5;85.76
23361;BME280;11852;50.082;18.554;2023-04-01T03:43:29;96882.5;;;8.49;85.68
23361;BME280;11852;50.082;18.554;2023-04-01T03:44:36;96881.99;;;8.49;85.62
23361;BME280;11852;50.082;18.554;2023-04-01T03:45:47;96879.51;;;8.47;85.69
23361;BME280;11852;50.082;18.554;2023-04-01T03:46:53;96879.5;;;8.48;85.58
23361;BME280;11852;50.082;18.554;2023-04-01T03:47:59;96880.01;;;8.63;85.07
23361;BME280;11852;50.082;18.554;2023-04-01T03:49:07;96876.5;;;8.5;85.63
23361;BME280;11852;50.082;18.554;2023-04-01T03:50:13;96876.0;;;8.51;85.53
23361;BME280;11852;50.082;18.554;2023-04-01T03:51:20;96875.0;;;8.43;85.74
23361;BME280;11852;50.082;18.554;2023-04-01T03:52:27;96879.5;;;8.4;85.88
23361;BME280;11852;50.082;18.554;2023-04-01T03:53:34;96878.5;;;8.44;85.6
23361;BME280;11852;50.082;18.554;2023-04-01T03:54:40;96877.0;;;8.43;85.6
23361;BME280;11852;50.082;18.554;2023-04-01T03:55:47;96880.5;;;8.38;85.88
23361;BME280;11852;50.082;18.554;2023-04-01T03:56:54;96879.51;;;8.39;85.78
23361;BME280;11852;50.082;18.554;2023-04-01T03:58:01;96879.51;;;8.34;85.9
23361;BME280;11852;50.082;18.554;2023-04-01T03:59:08;96879.0;;;8.41;85.6
23361;BME280;11852;50.082;18.554;2023-04-01T04:00:15;96883.5;;;8.4;85.74
23361;BME280;11852;50.082;18.554;2023-04-01T04:01:22;96880.5;;;8.33;86.01
23361;BME280;11852;50.082;18.554;2023-04-01T04:02:28;96882.99;;;8.31;85.96
23361;BME280;11852;50.082;18.554;2023-04-01T04:03:35;96881.5;;;8.24;86.29
23361;BME280;11852;50.082;18.554;2023-04-01T04:04:42;96884.0;;;8.29;86.09
23361;BME280;11852;50.082;18.554;2023-04-01T04:05:49;96885.5;;;8.28;85.99
23361;BME280;11852;50.082;18.554;2023-04-01T04:06:56;96884.5;;;8.31;86.01
23361;BME280;11852;50.082;18.554;2023-04-01T04:08:02;96885.0;;;8.46;85.47
23361;BME280;11852;50.082;18.554;2023-04-01T04:09:09;96886.0;;;8.49;85.4
23361;BME280;11852;50.082;18.554;2023-04-01T04:10:16;96887.5;;;8.35;85.79
23361;BME280;11852;50.082;18.554;2023-04-01T04:11:23;96889.0;;;8.4;85.65
23361;BME280;11852;50.082;18.554;2023-04-01T04:12:30;96883.5;;;8.44;85.51
23361;BME280;11852;50.082;18.554;2023-04-01T04:13:37;96887.5;;;8.41;85.62
23361;BME280;11852;50.082;18.554;2023-04-01T04:14:43;96886.0;;;8.47;85.43
23361;BME280;11852;50.082;18.554;2023-04-01T04:15:50;96888.0;;;8.43;85.58
23361;BME280;11852;50.082;18.554;2023-04-01T04:16:57;96887.0;;;8.32;85.97
23361;BME280;11852;50.082;18.554;2023-04-01T04:18:04;96886.5;;;8.31;85.97
23361;BME280;11852;50.082;18.554;2023-04-01T04:19:11;96885.5;;;8.32;85.9
23361;BME280;11852;50.082;18.554;2023-04-01T04:20:17;96887.0;;;8.34;85.82
23361;BME280;11852;50.082;18.554;2023-04-01T04:21:24;96881.5;;;8.43;85.56
23361;BME280;11852;50.082;18.554;2023-04-01T04:22:31;96882.5;;;8.31;85.97
23361;BME280;11852;50.082;18.554;2023-04-01T04:23:38;96881.5;;;8.36;85.82
23361;BME280;11852;50.082;18.554;2023-04-01T04:24:45;96883.0;;;8.35;85.89
23361;BME280;11852;50.082;18.554;2023-04-01T04:25:55;96879.51;;;8.34;85.92
23361;BME280;11852;50.082;18.554;2023-04-01T04:27:01;96881.5;;;8.34;85.97
23361;BME280;11852;50.082;18.554;2023-04-01T04:28:08;96878.0;;;8.3;86.03
23361;BME280;11852;50.082;18.554;2023-04-01T04:29:15;96878.5;;;8.25;86.23
23361;BME280;11852;50.082;18.554;2023-04-01T04:30:21;96879.5;;;8.27;86.1
23361;BME280;11852;50.082;18.554;2023-04-01T04:31:28;96877.5;;;8.4;85.66
23361;BME280;11852;50.082;18.554;2023-04-01T04:32:35;96876.0;;;8.43;85.61
23361;BME280;11852;50.082;18.554;2023-04-01T04:33:42;96878.0;;;8.34;85.85
23361;BME280;11852;50.082;18.554;2023-04-01T04:34:49;96879.0;;;8.3;85.99
23361;BME280;11852;50.082;18.554;2023-04-01T04:35:56;96876.0;;;8.4;85.58
23361;BME280;11852;50.082;18.554;2023-04-01T04:37:02;96877.0;;;8.4;85.58
23361;BME280;11852;50.082;18.554;2023-04-01T04:38:09;96878.5;;;8.33;85.92
23361;BME280;11852;50.082;18.554;2023-04-01T04:39:16;96876.0;;;8.32;85.86
23361;BME280;11852;50.082;18.554;2023-04-01T04:40:23;96880.5;;;8.33;85.84
23361;BME280;11852;50.082;18.554;2023-04-01T04:41:30;96881.0;;;8.38;85.71
23361;BME280;11852;50.082;18.554;2023-04-01T04:42:36;96876.5;;;8.38;85.67
23361;BME280;11852;50.082;18.554;2023-04-01T04:43:48;96877.0;;;8.5;85.32
23361;BME280;11852;50.082;18.554;2023-04-01T04:44:50;96878.5;;;8.43;85.68
23361;BME280;11852;50.082;18.554;2023-04-01T04:45:57;96876.5;;;8.46;85.63
23361;BME280;11852;50.082;18.554;2023-04-01T04:47:04;96878.0;;;8.47;85.65
23361;BME280;11852;50.082;18.554;2023-04-01T04:48:14;96877.5;;;8.44;85.67
23361;BME280;11852;50.082;18.554;2023-04-01T04:49:20;96880.5;;;8.37;85.9
23361;BME280;11852;50.082;18.554;2023-04-01T04:50:27;96877.5;;;8.45;85.54
23361;BME280;11852;50.082;18.554;2023-04-01T04:51:33;96877.5;;;8.38;85.99
23361;BME280;11852;50.082;18.554;2023-04-01T04:52:40;96877.0;;;8.51;85.54
23361;BME280;11852;50.082;18.554;2023-04-01T04:53:47;96877.0;;;8.36;85.82
23361;BME280;11852;50.082;18.554;2023-04-01T04:54:54;96875.0;;;8.56;85.4
23361;BME280;11852;50.082;18.554;2023-04-01T04:56:01;96877.5;;;8.6;85.33
23361;BME280;11852;50.082;18.554;2023-04-01T04:57:08;96876.0;;;8.6;85.43
23361;BME280;11852;50.082;18.554;2023-04-01T04:58:15;96879.0;;;8.53;85.68
23361;BME280;11852;50.082;18.554;2023-04-01T04:59:21;96879.0;;;8.56;85.59
23361;BME280;11852;50.082;18.554;2023-04-01T05:00:28;96881.99;;;8.63;85.4
23361;BME280;11852;50.082;18.554;2023-04-01T05:01:35;96883.0;;;8.58;85.62
23361;BME280;11852;50.082;18.554;2023-04-01T05:02:42;96879.5;;;8.6;85.5
23361;BME280;11852;50.082;18.554;2023-04-01T05:03:48;96881.0;;;8.62;85.53
23361;BME280;11852;50.082;18.554;2023-04-01T05:04:55;96882.0;;;8.64;85.49
23361;BME280;11852;50.082;18.554;2023-04-01T05:06:03;96886.5;;;8.73;85.23
23361;BME280;11852;50.082;18.554;2023-04-01T05:07:09;96887.5;;;8.61;85.67
23361;BME280;11852;50.082;18.554;2023-04-01T05:08:16;96886.5;;;8.65;85.55
23361;BME280;11852;50.082;18.554;2023-04-01T05:09:23;96887.0;;;8.55;85.83
23361;BME280;11852;50.082;18.554;2023-04-01T05:10:29;96890.0;;;8.61;85.67
23361;BME280;11852;50.082;18.554;2023-04-01T05:11:36;96888.0;;;8.66;85.49
23361;BME280;11852;50.082;18.554;2023-04-01T05:12:43;96888.0;;;8.66;85.49
23361;BME280;11852;50.082;18.554;2023-04-01T05:13:50;96887.0;;;8.67;85.51
23361;BME280;11852;50.082;18.554;2023-04-01T05:14:57;96888.5;;;8.65;85.65
23361;BME280;11852;50.082;18.554;2023-04-01T05:16:07;96886.5;;;8.71;85.47
23361;BME280;11852;50.082;18.554;2023-04-01T05:17:11;96891.0;;;8.64;85.65
23361;BME280;11852;50.082;18.554;2023-04-01T05:18:18;96888.0;;;8.7;85.49
23361;BME280;11852;50.082;18.554;2023-04-01T05:19:24;96890.5;;;8.85;85.0
23361;BME280;11852;50.082;18.554;2023-04-01T05:20:31;96890.5;;;8.76;85.41
23361;BME280;11852;50.082;18.554;2023-04-01T05:21:38;96888.0;;;8.77;85.32
23361;BME280;11852;50.082;18.554;2023-04-01T05:22:45;96886.0;;;8.65;85.71
23361;BME280;11852;50.082;18.554;2023-04-01T05:23:52;96884.0;;;8.61;85.87
23361;BME280;11852;50.082;18.554;2023-04-01T05:24:59;96888.0;;;8.73;85.44
23361;BME280;11852;50.082;18.554;2023-04-01T05:26:12;96886.5;;;8.72;85.49
23361;BME280;11852;50.082;18.554;2023-04-01T05:27:15;96889.5;;;8.63;85.69
23361;BME280;11852;50.082;18.554;2023-04-01T05:28:22;96886.5;;;8.56;85.84
23361;BME280;11852;50.082;18.554;2023-04-01T05:29:29;96889.0;;;8.6;85.69
23361;BME280;11852;50.082;18.554;2023-04-01T05:30:36;96892.0;;;8.6;85.84
23361;BME280;11852;50.082;18.554;2023-04-01T05:31:42;96890.5;;;8.48;86.15
23361;BME280;11852;50.082;18.554;2023-04-01T05:32:49;96892.5;;;8.61;85.68
23361;BME280;11852;50.082;18.554;2023-04-01T05:33:56;96893.99;;;8.68;85.71
23361;BME280;11852;50.082;18.554;2023-04-01T05:35:03;96894.99;;;8.68;85.65
23361;BME280;11852;50.082;18.554;2023-04-01T05:36:11;96893.0;;;8.7;85.69
23361;BME280;11852;50.082;18.554;2023-04-01T05:37:17;96896.0;;;8.66;85.85
23361;BME280;11852;50.082;18.554;2023-04-01T05:38:24;96898.0;;;8.68;85.7
23361;BME280;11852;50.082;18.554;2023-04-01T05:39:30;96896.5;;;8.66;85.75
23361;BME280;11852;50.082;18.554;2023-04-01T05:40:37;96897.0;;;8.6;85.88
23361;BME280;11852;50.082;18.554;2023-04-01T05:41:44;96898.0;;;8.65;85.87
23361;BME280;11852;50.082;18.554;2023-04-01T05:42:51;96901.0;;;8.82;85.32
23361;BME280;11852;50.082;18.554;2023-04-01T05:43:58;96897.0;;;8.74;85.6
23361;BME280;11852;50.082;18.554;2023-04-01T05:45:05;96898.5;;;8.76;85.62
23361;BME280;11852;50.082;18.554;2023-04-01T05:46:12;96899.5;;;8.74;85.64
23361;BME280;11852;50.082;18.554;2023-04-01T05:47:18;96900.5;;;8.6;86.08
23361;BME280;11852;50.082;18.554;2023-04-01T05:48:26;96901.0;;;8.7;85.68
23361;BME280;11852;50.082;18.554;2023-04-01T05:49:33;96899.5;;;8.84;85.32
23361;BME280;11852;50.082;18.554;2023-04-01T05:50:41;96900.0;;;8.72;85.72
23361;BME280;11852;50.082;18.554;2023-04-01T05:51:48;96902.5;;;8.77;85.46
23361;BME280;11852;50.082;18.554;2023-04-01T05:52:54;96897.0;;;8.72;85.78
23361;BME280;11852;50.082;18.554;2023-04-01T05:54:01;96905.01;;;8.79;85.57
23361;BME280;11852;50.082;18.554;2023-04-01T05:55:08;96904.5;;;8.68;85.99
23361;BME280;11852;50.082;18.554;2023-04-01T05:56:15;96902.5;;;8.74;85.82
23361;BME280;11852;50.082;18.554;2023-04-01T05:57:22;96905.51;;;8.78;85.69
23361;BME280;11852;50.082;18.554;2023-04-01T05:58:28;96905.0;;;8.84;85.57
23361;BME280;11852;50.082;18.554;2023-04-01T05:59:35;96904.0;;;8.92;85.46
23361;BME280;11852;50.082;18.554;2023-04-01T06:00:42;96905.01;;;8.77;86.08
23361;BME280;11852;50.082;18.554;2023-04-01T06:01:49;96907.0;;;8.86;85.69
23361;BME280;11852;50.082;18.554;2023-04-01T06:02:58;96908.5;;;8.98;85.41
23361;BME280;11852;50.082;18.554;2023-04-01T06:04:02;96905.51;;;8.87;85.9
23361;BME280;11852;50.082;18.554;2023-04-01T06:05:17;96906.0;;;8.91;85.74
23361;BME280;11852;50.082;18.554;2023-04-01T06:06:25;96905.01;;;8.87;85.78
23361;BME280;11852;50.082;18.554;2023-04-01T06:07:30;96907.5;;;8.86;85.83
23361;BME280;11852;50.082;18.554;2023-04-01T06:08:37;96905.51;;;8.89;85.71
23361;BME280;11852;50.082;18.554;2023-04-01T06:09:44;96906.01;;;8.93;85.61
23361;BME280;11852;50.082;18.554;2023-04-01T06:13:26;96904.0;;;8.99;85.71
23361;BME280;11852;50.082;18.554;2023-04-01T06:15:59;96908.0;;;9.07;85.47
23361;BME280;11852;50.082;18.554;2023-04-01T06:21:59;96911.5;;;9.18;85.33
23361;BME280;11852;50.082;18.554;2023-04-01T06:25:38;96910.0;;;9.32;84.85
23361;BME280;11852;50.082;18.554;2023-04-01T06:26:46;96912.0;;;9.3;84.94
23361;BME280;11852;50.082;18.554;2023-04-01T06:37:48;96915.0;;;9.42;84.54
23361;BME280;11852;50.082;18.554;2023-04-01T06:46:04;96919.0;;;9.48;84.32
23361;BME280;11852;50.082;18.554;2023-04-01T06:46:28;96919.99;;;9.49;84.21
23361;BME280;11852;50.082;18.554;2023-04-01T06:47:39;96920.49;;;9.56;83.99
23361;BME280;11852;50.082;18.554;2023-04-01T06:56:09;96918.5;;;9.66;83.57
23361;BME280;11852;50.082;18.554;2023-04-01T06:58:37;96919.99;;;9.7;83.11
23361;BME280;11852;50.082;18.554;2023-04-01T06:59:43;96920.5;;;9.93;82.15
23361;BME280;11852;50.082;18.554;2023-04-01T07:00:51;96926.5;;;9.97;82.18
23361;BME280;11852;50.082;18.554;2023-04-01T07:02:02;96925.5;;;10.05;82.01